createdAt,value
2018-12-08T00:00:27.997Z,7.79
2018-12-08T00:03:02.451Z,7.45
2018-12-08T00:05:37.483Z,7.89
2018-12-08T00:08:14.344Z,7.94
2018-12-08T00:10:48.579Z,7.93
2018-12-08T00:13:36.383Z,7.93
2018-12-08T00:16:10.904Z,7.87
2018-12-08T00:18:46.914Z,7.89
2018-12-08T00:21:21.738Z,7.91
2018-12-08T00:23:57.294Z,7.89
2018-12-08T00:26:28.579Z,7.81
2018-12-08T00:29:12.538Z,7.75
2018-12-08T00:31:54.210Z,7.75
2018-12-08T00:34:28.188Z,7.69
2018-12-08T00:37:03.726Z,7.61
2018-12-08T00:39:38.576Z,7.53
2018-12-08T00:42:10.120Z,7.44
2018-12-08T00:44:44.239Z,7.49
2018-12-08T00:47:18.990Z,7.46
2018-12-08T00:49:51.217Z,6.78
2018-12-08T00:52:22.369Z,7.49
2018-12-08T00:54:54.953Z,7.51
2018-12-08T00:57:29.224Z,7.53
2018-12-08T01:00:03.291Z,7.54
2018-12-08T01:02:37.170Z,7.56
2018-12-08T01:05:10.278Z,7.49
2018-12-08T01:07:41.910Z,7.42
2018-12-08T01:10:17.911Z,7.39
2018-12-08T01:12:52.706Z,7.40
2018-12-08T01:15:28.758Z,7.40
2018-12-08T01:18:01.517Z,7.38
2018-12-08T01:20:37.403Z,7.43
2018-12-08T01:23:11.515Z,7.38
2018-12-08T01:25:47.783Z,7.35
2018-12-08T01:28:24.351Z,7.29
2018-12-08T01:31:00.721Z,7.00
2018-12-08T01:33:32.298Z,7.23
2018-12-08T01:36:07.120Z,7.24
2018-12-08T01:38:43.162Z,7.18
2018-12-08T01:41:17.782Z,7.07
2018-12-08T01:43:52.047Z,7.05
2018-12-08T01:46:24.654Z,7.00
2018-12-08T01:48:57.445Z,6.96
2018-12-08T01:51:31.652Z,6.88
2018-12-08T01:54:04.556Z,6.83
2018-12-08T01:56:38.750Z,6.85
2018-12-08T01:59:12.815Z,6.77
2018-12-08T02:01:45.683Z,6.63
2018-12-08T02:04:22.164Z,6.55
2018-12-08T02:06:56.688Z,6.44
2018-12-08T02:09:31.069Z,6.28
2018-12-08T02:12:05.942Z,6.10
2018-12-08T02:14:39.127Z,6.06
2018-12-08T02:17:12.322Z,6.12
2018-12-08T02:19:44.894Z,6.10
2018-12-08T02:22:16.791Z,6.00
2018-12-08T02:24:51.665Z,5.94
2018-12-08T02:27:25.940Z,5.93
2018-12-08T02:30:00.749Z,5.88
2018-12-08T02:32:36.261Z,5.78
2018-12-08T02:35:10.781Z,5.56
2018-12-08T02:37:43.624Z,5.65
2018-12-08T02:40:16.270Z,5.61
2018-12-08T02:42:49.297Z,5.58
2018-12-08T02:45:24.160Z,5.57
2018-12-08T02:47:58.098Z,5.62
2018-12-08T02:50:34.030Z,5.65
2018-12-08T02:53:06.900Z,5.78
2018-12-08T02:55:41.218Z,5.92
2018-12-08T02:58:16.049Z,5.97
2018-12-08T03:00:50.118Z,6.05
2018-12-08T03:03:23.273Z,6.09
2018-12-08T03:05:57.363Z,6.05
2018-12-08T03:08:32.007Z,6.14
2018-12-08T03:11:08.007Z,6.11
2018-12-08T03:13:41.890Z,6.09
2018-12-08T03:16:17.230Z,5.92
2018-12-08T03:18:51.627Z,5.81
2018-12-08T03:21:25.643Z,5.84
2018-12-08T03:24:01.913Z,5.90
2018-12-08T03:26:36.637Z,5.89
2018-12-08T03:29:19.025Z,5.91
2018-12-08T03:31:53.783Z,5.89
2018-12-08T03:34:28.614Z,5.87
2018-12-08T03:37:04.449Z,5.94
2018-12-08T03:39:38.628Z,5.96
2018-12-08T03:42:11.330Z,5.95
2018-12-08T03:44:45.295Z,5.99
2018-12-08T03:47:21.460Z,5.96
2018-12-08T03:49:52.404Z,5.91
2018-12-08T03:52:34.742Z,5.88
2018-12-08T03:55:10.108Z,5.87
2018-12-08T03:57:44.648Z,5.79
2018-12-08T04:00:15.618Z,5.85
2018-12-08T04:02:49.989Z,5.90
2018-12-08T04:05:27.815Z,6.01
2018-12-08T04:08:02.467Z,5.93
2018-12-08T04:13:34.080Z,5.62
2018-12-08T04:16:06.793Z,5.58
2018-12-08T04:18:40.777Z,5.53
2018-12-08T04:21:14.980Z,5.54
2018-12-08T04:23:47.499Z,5.57
2018-12-08T04:26:21.581Z,5.45
2018-12-08T04:28:52.786Z,5.47
2018-12-08T04:31:37.392Z,5.58
2018-12-08T04:34:11.748Z,5.51
2018-12-08T04:36:42.613Z,5.54
2018-12-08T04:39:25.756Z,5.54
2018-12-08T04:41:56.606Z,5.56
2018-12-08T04:44:28.704Z,5.55
2018-12-08T04:47:03.590Z,5.57
2018-12-08T04:49:38.598Z,5.54
2018-12-08T04:52:13.051Z,5.51
2018-12-08T04:54:43.779Z,5.51
2018-12-08T04:57:22.438Z,5.52
2018-12-08T04:59:58.355Z,5.52
2018-12-08T05:02:29.193Z,5.46
2018-12-08T05:05:00.267Z,5.41
2018-12-08T05:07:31.591Z,5.39
2018-12-08T05:10:08.120Z,5.41
2018-12-08T05:12:42.249Z,5.42
2018-12-08T05:15:13.111Z,5.45
2018-12-08T05:17:47.843Z,5.49
2018-12-08T05:20:19.070Z,5.48
2018-12-08T05:23:05.252Z,5.48
2018-12-08T05:25:53.976Z,5.45
2018-12-08T05:28:25.786Z,5.47
2018-12-08T05:33:57.107Z,5.45
2018-12-08T05:36:29.658Z,5.47
2018-12-08T05:39:07.155Z,5.48
2018-12-08T05:44:34.618Z,5.49
2018-12-08T05:47:10.878Z,5.55
2018-12-08T05:52:41.176Z,5.60
2018-12-08T05:55:22.784Z,5.63
2018-12-08T05:58:04.582Z,5.64
2018-12-08T06:00:43.881Z,5.62
2018-12-08T06:03:19.675Z,5.62
2018-12-08T06:05:52.304Z,5.64
2018-12-08T06:08:28.418Z,5.60
2018-12-08T06:11:12.035Z,5.60
2018-12-08T06:13:47.744Z,5.58
2018-12-08T06:16:20.055Z,5.55
2018-12-08T06:18:55.881Z,5.57
2018-12-08T06:21:37.677Z,5.63
2018-12-08T06:24:11.603Z,5.74
2018-12-08T06:28:07.740Z,5.84
2018-12-08T06:30:46.563Z,5.84
2018-12-08T06:33:20.836Z,5.83
2018-12-08T06:35:51.885Z,5.81
2018-12-08T06:38:29.043Z,5.79
2018-12-08T06:41:03.872Z,5.77
2018-12-08T06:43:37.863Z,5.79
2018-12-08T06:46:12.445Z,5.75
2018-12-08T06:48:47.445Z,5.71
2018-12-08T06:51:18.859Z,5.73
2018-12-08T06:53:53.699Z,5.72
2018-12-08T06:56:25.603Z,5.69
2018-12-08T06:59:01.916Z,5.73
2018-12-08T07:01:38.899Z,5.72
2018-12-08T07:04:10.682Z,5.66
2018-12-08T07:06:43.989Z,5.69
2018-12-08T07:09:18.004Z,5.67
2018-12-08T07:11:53.475Z,5.64
2018-12-08T07:14:41.603Z,5.65
2018-12-08T07:17:19.745Z,5.64
2018-12-08T07:19:54.418Z,5.64
2018-12-08T07:22:29.869Z,5.71
2018-12-08T07:25:23.594Z,5.41
2018-12-08T07:28:00.537Z,5.79
2018-12-08T07:30:36.040Z,5.85
2018-12-08T07:33:10.773Z,5.89
2018-12-08T07:35:41.618Z,5.81
2018-12-08T07:38:15.736Z,5.84
2018-12-08T07:40:47.416Z,5.82
2018-12-08T07:45:52.111Z,5.86
2018-12-08T07:48:28.832Z,5.90
2018-12-08T07:51:04.126Z,5.94
2018-12-08T07:53:40.483Z,6.02
2018-12-08T07:56:12.471Z,6.06
2018-12-08T07:58:46.500Z,6.05
2018-12-08T08:01:27.315Z,6.12
2018-12-08T08:04:01.996Z,6.23
2018-12-08T08:06:33.538Z,6.32
2018-12-08T08:09:09.776Z,6.32
2018-12-08T08:11:43.784Z,6.41
2018-12-08T08:14:17.718Z,6.36
2018-12-08T08:16:52.068Z,6.36
2018-12-08T08:19:24.100Z,6.46
2018-12-08T08:30:46.803Z,6.52
2018-12-08T08:33:17.717Z,6.62
2018-12-08T08:35:49.228Z,6.62
2018-12-08T08:38:20.329Z,6.76
2018-12-08T08:40:51.167Z,6.85
2018-12-08T08:43:22.321Z,6.83
2018-12-08T08:45:53.244Z,6.83
2018-12-08T08:48:24.087Z,6.94
2018-12-08T08:50:57.402Z,7.00
2018-12-08T08:53:32.258Z,7.11
2018-12-08T08:56:04.057Z,7.24
2018-12-08T08:58:35.074Z,7.18
2018-12-08T09:01:06.374Z,7.24
2018-12-08T09:03:37.232Z,7.29
2018-12-08T09:06:08.292Z,7.35
2018-12-08T09:08:39.434Z,7.33
2018-12-08T09:11:10.324Z,7.39
2018-12-08T09:13:41.124Z,7.36
2018-12-08T09:16:13.284Z,7.39
2018-12-08T09:18:44.131Z,7.43
2018-12-08T09:21:15.799Z,7.42
2018-12-08T09:23:47.055Z,7.36
2018-12-08T09:26:17.999Z,7.33
2018-12-08T09:28:49.538Z,7.33
2018-12-08T09:31:20.497Z,7.28
2018-12-08T09:33:52.955Z,7.26
2018-12-08T09:36:23.895Z,7.25
2018-12-08T09:38:58.784Z,7.30
2018-12-08T09:41:30.007Z,7.34
2018-12-08T09:44:00.920Z,7.38
2018-12-08T09:46:32.130Z,7.41
2018-12-08T09:49:03.092Z,7.41
2018-12-08T09:51:34.166Z,7.43
2018-12-08T09:54:05.788Z,7.56
2018-12-08T09:56:36.555Z,7.51
2018-12-08T09:59:07.597Z,7.61
2018-12-08T10:01:38.599Z,7.62
2018-12-08T10:04:09.548Z,7.64
2018-12-08T10:06:44.363Z,7.71
2018-12-08T10:09:15.104Z,7.64
2018-12-08T10:11:45.859Z,7.59
2018-12-08T10:14:16.696Z,7.64
2018-12-08T10:16:47.614Z,7.68
2018-12-08T10:19:21.895Z,7.74
2018-12-08T10:21:52.776Z,7.71
2018-12-08T10:24:27.480Z,7.71
2018-12-08T10:27:04.386Z,7.73
2018-12-08T10:29:40.956Z,7.68
2018-12-08T10:32:15.999Z,7.62
2018-12-08T10:34:51.372Z,7.69
2018-12-08T10:37:27.887Z,7.63
2018-12-08T10:40:04.335Z,7.58
2018-12-08T10:42:35.372Z,7.51
2018-12-08T10:45:09.480Z,7.42
2018-12-08T10:50:13.465Z,7.41
2018-12-08T10:52:50.032Z,7.28
2018-12-08T10:55:24.196Z,7.27
2018-12-08T10:57:58.387Z,7.23
2018-12-08T11:02:39.941Z,7.15
2018-12-08T11:05:12.466Z,7.11
2018-12-08T11:07:48.480Z,7.11
2018-12-08T11:10:26.044Z,7.29
2018-12-08T11:12:59.780Z,7.51
2018-12-08T11:15:32.799Z,7.61
2018-12-08T11:18:10.730Z,7.69
2018-12-08T11:20:42.142Z,7.83
2018-12-08T11:23:18.457Z,8.05
2018-12-08T11:25:53.328Z,8.27
2018-12-08T11:28:28.427Z,8.11
2018-12-08T11:31:03.212Z,7.86
2018-12-08T11:33:35.075Z,7.71
2018-12-08T11:36:10.284Z,7.64
2018-12-08T11:38:45.877Z,7.64
2018-12-08T11:41:20.354Z,7.77
2018-12-08T11:44:13.891Z,7.74
2018-12-08T11:46:51.101Z,7.79
2018-12-08T11:49:26.274Z,7.81
2018-12-08T11:52:03.720Z,7.78
2018-12-08T11:54:39.558Z,7.69
2018-12-08T11:57:15.940Z,7.74
2018-12-08T11:59:50.929Z,7.93
2018-12-08T12:02:27.782Z,8.02
2018-12-08T12:05:03.081Z,8.08
2018-12-08T12:07:39.572Z,8.03
2018-12-08T12:10:18.036Z,7.96
2018-12-08T12:12:53.426Z,7.92
2018-12-08T12:15:28.958Z,7.82
2018-12-08T12:18:06.777Z,7.88
2018-12-08T12:20:41.690Z,7.82
2018-12-08T12:23:16.508Z,7.88
2018-12-08T12:25:47.583Z,7.86
2018-12-08T12:28:21.889Z,7.79
2018-12-08T12:30:56.268Z,7.77
2018-12-08T12:33:32.353Z,7.80
2018-12-08T12:36:15.577Z,7.73
2018-12-08T12:38:50.556Z,7.75
2018-12-08T12:41:25.858Z,7.75
2018-12-08T12:44:17.711Z,7.77
2018-12-08T12:46:53.045Z,7.80
2018-12-08T12:49:30.516Z,7.83
2018-12-08T12:52:10.169Z,7.62
2018-12-08T12:54:46.960Z,7.47
2018-12-08T12:57:28.538Z,7.58
2018-12-08T13:00:08.392Z,7.57
2018-12-08T13:05:05.540Z,7.74
2018-12-08T13:07:41.540Z,7.74
2018-12-08T13:10:17.597Z,7.65
2018-12-08T13:15:49.523Z,7.61
2018-12-08T13:18:36.274Z,7.56
2018-12-08T13:24:02.961Z,7.54
2018-12-08T13:26:40.223Z,7.42
2018-12-08T13:29:27.624Z,7.39
2018-12-08T13:32:05.847Z,7.38
2018-12-08T13:37:58.206Z,7.32
2018-12-08T13:40:34.630Z,7.34
2018-12-08T13:43:09.437Z,7.25
2018-12-08T13:45:47.022Z,7.22
2018-12-08T13:48:34.278Z,7.34
2018-12-08T13:51:11.916Z,7.40
2018-12-08T13:53:46.963Z,7.47
2018-12-08T13:56:24.095Z,7.37
2018-12-08T13:59:00.898Z,7.30
2018-12-08T14:01:38.092Z,7.27
2018-12-08T14:04:14.860Z,7.29
2018-12-08T14:06:51.807Z,7.23
2018-12-08T14:09:25.001Z,7.19
2018-12-08T14:12:04.379Z,7.18
2018-12-08T14:14:39.426Z,7.18
2018-12-08T14:17:14.357Z,7.16
2018-12-08T14:19:49.655Z,7.15
2018-12-08T14:22:27.300Z,7.10
2018-12-08T14:25:03.014Z,7.00
2018-12-08T14:27:37.352Z,6.95
2018-12-08T14:30:16.813Z,6.91
2018-12-08T14:32:51.961Z,6.89
2018-12-08T14:35:30.000Z,6.85
2018-12-08T14:38:06.388Z,6.82
2018-12-08T14:40:43.875Z,6.88
2018-12-08T14:43:22.025Z,6.89
2018-12-08T14:45:54.384Z,6.91
2018-12-08T14:48:27.052Z,6.96
2018-12-08T14:51:03.996Z,6.94
2018-12-08T14:53:40.902Z,6.99
2018-12-08T14:56:17.491Z,6.98
2018-12-08T14:58:54.931Z,7.03
2018-12-08T15:01:30.413Z,7.06
2018-12-08T15:04:08.423Z,7.10
2018-12-08T15:06:42.950Z,7.03
2018-12-08T15:09:18.104Z,7.07
2018-12-08T15:11:56.053Z,7.08
2018-12-08T15:14:30.014Z,7.04
2018-12-08T15:17:04.908Z,7.10
2018-12-08T15:19:37.327Z,7.10
2018-12-08T15:22:11.687Z,7.06
2018-12-08T15:24:53.434Z,7.11
2018-12-08T15:27:30.304Z,7.15
2018-12-08T15:30:03.466Z,7.09
2018-12-08T15:32:38.452Z,7.06
2018-12-08T15:35:11.893Z,7.11
2018-12-08T15:37:46.747Z,7.14
2018-12-08T15:40:19.126Z,7.12
2018-12-08T15:42:51.443Z,7.13
2018-12-08T15:45:25.498Z,7.25
2018-12-08T15:47:59.437Z,7.22
2018-12-08T15:50:33.594Z,7.25
2018-12-08T15:53:04.812Z,7.28
2018-12-08T15:55:41.975Z,7.28
2018-12-08T15:58:16.457Z,7.29
2018-12-08T16:00:47.688Z,7.27
2018-12-08T16:03:22.417Z,7.26
2018-12-08T16:05:54.372Z,7.22
2018-12-08T16:08:28.775Z,7.23
2018-12-08T16:11:02.952Z,7.27
2018-12-08T16:13:36.927Z,7.25
2018-12-08T16:16:07.767Z,7.35
2018-12-08T16:18:38.708Z,7.30
2018-12-08T16:21:10.090Z,7.21
2018-12-08T16:23:41.563Z,7.30
2018-12-08T16:26:16.536Z,7.28
2018-12-08T16:29:01.234Z,7.28
2018-12-08T16:31:34.450Z,7.27
2018-12-08T16:34:08.679Z,7.32
2018-12-08T16:36:40.750Z,7.45
2018-12-08T16:39:13.515Z,7.37
2018-12-08T16:41:45.560Z,7.42
2018-12-08T16:44:19.086Z,7.39
2018-12-08T16:46:50.876Z,7.36
2018-12-08T16:49:21.652Z,7.49
2018-12-08T16:51:53.732Z,7.49
2018-12-08T16:54:24.543Z,7.42
2018-12-08T16:56:55.940Z,7.34
2018-12-08T16:59:27.966Z,7.38
2018-12-08T17:01:59.109Z,7.40
2018-12-08T17:04:30.625Z,7.41
2018-12-08T17:07:01.434Z,7.49
2018-12-08T17:09:32.589Z,7.42
2018-12-08T17:12:03.643Z,7.47
2018-12-08T17:14:34.433Z,7.48
2018-12-08T17:17:05.798Z,7.45
2018-12-08T17:19:38.135Z,7.42
2018-12-08T17:22:09.117Z,7.49
2018-12-08T17:24:40.880Z,7.44
2018-12-08T17:27:12.459Z,7.44
2018-12-08T17:29:43.264Z,7.44
2018-12-08T17:32:15.564Z,7.38
2018-12-08T17:34:46.560Z,7.45
2018-12-08T17:37:17.411Z,7.47
2018-12-08T17:39:56.429Z,7.45
2018-12-08T17:42:31.704Z,7.53
2018-12-08T17:45:08.171Z,7.49
2018-12-08T17:47:42.276Z,7.53
2018-12-08T17:50:13.384Z,7.55
2018-12-08T17:52:46.018Z,7.56
2018-12-08T17:55:17.947Z,7.64
2018-12-08T17:57:55.770Z,7.59
2018-12-08T18:00:35.439Z,7.57
2018-12-08T18:03:08.277Z,7.54
2018-12-08T18:05:42.280Z,7.54
2018-12-08T18:08:19.558Z,7.55
2018-12-08T18:11:07.549Z,7.48
2018-12-08T18:18:58.091Z,7.34
2018-12-08T18:21:41.588Z,7.28
2018-12-08T18:24:18.146Z,7.26
2018-12-08T18:26:54.049Z,7.21
2018-12-08T18:29:28.040Z,7.22
2018-12-08T18:32:23.973Z,7.32
2018-12-08T18:34:54.863Z,7.28
2018-12-08T18:37:32.716Z,7.25
2018-12-08T18:40:03.698Z,7.39
2018-12-08T18:42:34.888Z,7.41
2018-12-08T18:45:06.028Z,7.45
2018-12-08T18:47:54.746Z,7.41
2018-12-08T18:50:26.717Z,7.40
2018-12-08T18:53:03.626Z,7.46
2018-12-08T18:55:38.352Z,7.44
2018-12-08T18:58:17.505Z,7.52
2018-12-08T19:01:02.716Z,7.47
2018-12-08T19:06:32.524Z,7.53
2018-12-08T19:09:09.225Z,7.58
2018-12-08T19:11:41.381Z,7.61
2018-12-08T19:14:15.082Z,7.74
2018-12-08T19:16:49.853Z,7.74
2018-12-08T19:19:24.111Z,7.78
2018-12-08T19:27:01.180Z,7.83
2018-12-08T19:29:35.228Z,7.82
2018-12-08T19:32:18.606Z,7.83
2018-12-08T19:34:49.392Z,7.82
2018-12-08T19:37:23.664Z,7.84
2018-12-08T19:39:55.180Z,7.87
2018-12-08T19:42:28.179Z,7.82
2018-12-08T19:44:59.528Z,7.87
2018-12-08T19:47:30.393Z,7.80
2018-12-08T19:50:02.609Z,7.81
2018-12-08T19:52:33.930Z,7.85
2018-12-08T19:55:04.698Z,7.83
2018-12-08T19:57:35.519Z,7.77
2018-12-08T20:00:09.456Z,7.69
2018-12-08T20:02:41.241Z,7.65
2018-12-08T20:05:12.275Z,7.71
2018-12-08T20:07:43.863Z,7.67
2018-12-08T20:10:14.721Z,7.70
2018-12-08T20:12:45.514Z,7.70
2018-12-08T20:15:16.375Z,7.65
2018-12-08T20:17:47.141Z,7.61
2018-12-08T20:20:17.939Z,7.59
2018-12-08T20:22:50.231Z,7.46
2018-12-08T20:25:21.815Z,7.43
2018-12-08T20:30:36.432Z,7.52
2018-12-08T20:33:12.806Z,7.51
2018-12-08T20:35:44.408Z,7.48
2018-12-08T20:38:18.118Z,7.49
2018-12-08T20:40:48.956Z,7.45
2018-12-08T20:43:19.700Z,7.45
2018-12-08T20:45:50.610Z,7.37
2018-12-08T20:48:21.823Z,7.40
2018-12-08T20:50:52.968Z,7.41
2018-12-08T20:53:23.935Z,7.41
2018-12-08T20:55:54.930Z,7.38
2018-12-08T20:58:25.812Z,7.37
2018-12-08T21:00:56.659Z,7.38
2018-12-08T21:03:27.796Z,7.33
2018-12-08T21:06:03.504Z,7.29
2018-12-08T21:08:34.961Z,7.31
2018-12-08T21:11:06.539Z,7.28
2018-12-08T21:13:37.870Z,7.28
2018-12-08T21:16:08.758Z,7.25
2018-12-08T21:18:40.882Z,7.27
2018-12-08T21:21:12.122Z,7.37
2018-12-08T21:23:44.069Z,7.46
2018-12-08T21:26:17.573Z,7.50
2018-12-08T21:28:52.623Z,7.57
2018-12-08T21:31:41.045Z,7.52
2018-12-08T21:37:22.608Z,7.59
2018-12-08T21:42:50.088Z,7.70
2018-12-08T21:45:22.805Z,7.75
2018-12-08T21:56:43.364Z,7.79
2018-12-08T21:59:21.184Z,7.78
2018-12-08T22:01:52.901Z,7.69
2018-12-08T22:04:30.662Z,7.61
2018-12-08T22:07:01.820Z,7.53
2018-12-08T22:09:42.252Z,7.52
2018-12-08T22:12:18.954Z,7.30
2018-12-08T22:14:55.775Z,7.25
2018-12-08T22:17:28.493Z,7.17
2018-12-08T22:20:02.395Z,7.19
2018-12-08T22:22:38.709Z,7.27
2018-12-08T22:25:13.625Z,7.24
2018-12-08T22:27:44.962Z,7.29
2018-12-08T22:30:15.899Z,7.33
2018-12-08T22:32:51.811Z,7.46
2018-12-08T22:35:22.982Z,7.50
2018-12-08T22:40:57.341Z,7.59
2018-12-08T22:43:32.185Z,7.60
2018-12-08T22:46:03.020Z,7.53
2018-12-08T22:48:34.081Z,7.73
2018-12-08T22:51:06.653Z,7.71
2018-12-08T22:53:37.750Z,7.79
2018-12-08T22:56:08.651Z,7.96
2018-12-08T22:58:39.377Z,8.07
2018-12-08T23:01:10.252Z,8.05
2018-12-08T23:03:52.786Z,8.16
2018-12-08T23:09:42.777Z,8.07
2018-12-08T23:12:17.596Z,8.24
2018-12-08T23:14:52.319Z,8.33
2018-12-08T23:17:35.914Z,8.39
2018-12-08T23:20:19.103Z,8.46
2018-12-08T23:22:49.984Z,8.57
2018-12-08T23:25:20.886Z,8.59
2018-12-08T23:27:51.643Z,8.56
2018-12-08T23:30:22.576Z,8.41
2018-12-08T23:32:53.428Z,8.46
2018-12-08T23:35:24.444Z,8.44
2018-12-08T23:37:56.288Z,8.38
2018-12-08T23:40:27.193Z,8.47
2018-12-08T23:42:58.159Z,8.45
2018-12-08T23:45:29.015Z,8.61
2018-12-08T23:47:59.803Z,8.72
2018-12-08T23:50:30.851Z,8.69
2018-12-08T23:53:04.287Z,8.75
2018-12-08T23:55:36.939Z,8.84
2018-12-08T23:58:08.321Z,8.83
